Time;durP1;ratioP1;P1;durP2;ratioP2;P2;SDS_P1;SDS_P2;PMS_P1;PMS_P2;Temp;Humidity;BMP_temperature;BMP_pressure;BME280_temperature;BME280_humidity;BME280_pressure;Samples;Min_cycle;Max_cycle;Signal;HPM_P1;HPM_P2
2021/07/11 04:02:43;;;;;;;3.60;3.30;;;17.60;99.90;;;;;;4938113;29;20544;-67
2021/07/11 04:05:12;;;;;;;5.03;3.20;;;17.70;99.90;;;;;;4939147;29;20453;-67
2021/07/11 04:07:39;;;;;;;3.67;3.47;;;17.70;99.90;;;;;;4939005;29;20453;-67
2021/07/11 04:10:07;;;;;;;3.73;3.43;;;17.70;99.90;;;;;;4938680;29;20456;-67
2021/07/11 04:12:34;;;;;;;5.23;2.60;;;17.80;99.90;;;;;;4958007;29;20472;-66
2021/07/11 04:15:01;;;;;;;3.10;2.90;;;17.80;99.90;;;;;;4957706;29;20510;-67
2021/07/11 04:17:29;;;;;;;2.77;2.53;;;17.80;99.90;;;;;;4957917;29;20522;-67
2021/07/11 04:19:58;;;;;;;5.20;3.80;;;17.90;99.90;;;;;;4957837;29;20511;-67
2021/07/11 04:22:26;;;;;;;4.57;3.37;;;17.80;99.90;;;;;;4957809;29;20479;-67
2021/07/11 04:24:55;;;;;;;3.60;3.33;;;17.90;99.90;;;;;;4957779;29;20462;-68
2021/07/11 04:27:24;;;;;;;3.30;3.00;;;17.90;99.90;;;;;;4958065;29;20455;-67
2021/07/11 04:29:51;;;;;;;3.60;3.30;;;17.90;99.90;;;;;;4957551;29;20455;-67
2021/07/11 04:32:18;;;;;;;3.93;3.20;;;17.90;99.90;;;;;;4957695;29;20480;-68
2021/07/11 04:34:45;;;;;;;3.73;3.50;;;18.00;99.90;;;;;;4957748;29;20463;-67
2021/07/11 04:37:14;;;;;;;2.80;2.70;;;18.10;99.90;;;;;;4957602;29;20456;-67
2021/07/11 04:39:41;;;;;;;3.43;3.13;;;18.10;99.90;;;;;;4957071;29;20990;-68
2021/07/11 04:42:07;;;;;;;5.37;3.57;;;18.20;99.90;;;;;;4957203;29;21016;-68
2021/07/11 04:44:34;;;;;;;5.60;3.47;;;18.30;99.90;;;;;;4957297;29;20467;-67
2021/07/11 04:47:01;;;;;;;4.03;3.37;;;18.30;99.90;;;;;;4957303;29;20455;-67
2021/07/11 04:49:28;;;;;;;3.80;3.47;;;18.40;99.90;;;;;;4957273;29;20455;-67
2021/07/11 04:51:56;;;;;;;3.23;3.03;;;18.40;99.90;;;;;;4957288;29;20571;-67
2021/07/11 04:54:25;;;;;;;3.20;2.77;;;18.50;99.90;;;;;;4957147;29;20456;-68
2021/07/11 04:56:52;;;;;;;3.30;3.10;;;18.40;99.90;;;;;;4956590;28;21005;-68
2021/07/11 04:59:19;;;;;;;3.20;3.00;;;18.40;99.90;;;;;;4957237;29;20882;-67
2021/07/11 05:01:46;;;;;;;3.20;3.00;;;18.40;99.90;;;;;;4956811;29;20995;-66
2021/07/11 05:04:13;;;;;;;2.90;2.70;;;18.40;99.90;;;;;;4957028;29;20459;-68
2021/07/11 05:06:39;;;;;;;3.23;3.00;;;18.40;99.90;;;;;;4957062;29;20460;-67
2021/07/11 05:09:07;;;;;;;5.77;3.07;;;18.50;99.90;;;;;;4956973;29;20856;-68
2021/07/11 05:11:35;;;;;;;3.33;3.03;;;18.60;99.90;;;;;;4957037;28;20482;-66
2021/07/11 05:14:02;;;;;;;3.93;3.37;;;18.60;99.90;;;;;;4957387;29;20459;-67
2021/07/11 05:16:29;;;;;;;2.70;2.60;;;18.70;99.90;;;;;;4956585;29;20965;-67
2021/07/11 05:18:56;;;;;;;4.27;3.60;;;18.70;99.90;;;;;;4956727;29;20460;-67
2021/07/11 05:21:22;;;;;;;2.53;2.43;;;18.80;99.90;;;;;;4956744;29;20593;-67
2021/07/11 05:23:50;;;;;;;2.93;2.73;;;18.90;99.90;;;;;;4956511;29;20963;-66
2021/07/11 05:26:17;;;;;;;2.20;2.10;;;18.90;99.90;;;;;;4957577;29;20814;-68
2021/07/11 05:28:45;;;;;;;2.73;2.53;;;18.90;99.90;;;;;;4957344;29;20455;-67
2021/07/11 05:31:12;;;;;;;3.10;2.90;;;18.90;99.90;;;;;;4958819;29;20503;-69
2021/07/11 05:33:39;;;;;;;3.70;2.93;;;19.00;99.90;;;;;;4957357;29;20939;-67
2021/07/11 05:36:07;;;;;;;2.70;2.50;;;19.00;99.90;;;;;;4956651;29;20460;-67
2021/07/11 05:38:34;;;;;;;3.33;2.90;;;19.00;99.90;;;;;;4956514;29;20459;-67
2021/07/11 05:41:01;;;;;;;3.03;2.83;;;19.00;99.90;;;;;;4956294;29;20519;-67
2021/07/11 05:43:27;;;;;;;2.87;2.77;;;19.00;99.90;;;;;;4956337;29;20463;-67
2021/07/11 05:45:55;;;;;;;4.53;2.90;;;19.00;99.90;;;;;;4956023;29;20958;-66
2021/07/11 05:48:22;;;;;;;3.40;3.10;;;19.00;99.90;;;;;;4956369;29;20452;-67
2021/07/11 05:50:49;;;;;;;3.10;2.90;;;18.90;99.90;;;;;;4956151;29;20521;-68
2021/07/11 05:53:16;;;;;;;2.40;2.23;;;18.90;99.90;;;;;;4956242;29;20506;-66
2021/07/11 05:55:43;;;;;;;3.47;3.27;;;19.00;99.90;;;;;;4956223;29;20466;-68
2021/07/11 05:58:10;;;;;;;3.30;3.00;;;19.00;99.90;;;;;;4956174;29;20482;-67
2021/07/11 06:00:37;;;;;;;3.60;3.37;;;19.00;99.90;;;;;;4955773;29;20487;-67
2021/07/11 06:03:05;;;;;;;3.33;3.03;;;19.00;99.90;;;;;;4956108;29;20447;-67
2021/07/11 06:05:32;;;;;;;4.50;3.07;;;19.10;99.90;;;;;;4956063;29;20460;-67
2021/07/11 06:07:58;;;;;;;3.70;2.77;;;19.10;99.90;;;;;;4955008;28;20974;-67
2021/07/11 06:10:25;;;;;;;4.80;2.77;;;19.10;99.90;;;;;;4955891;29;20959;-68
2021/07/11 06:12:52;;;;;;;4.10;3.80;;;19.20;99.90;;;;;;4956008;29;20483;-67
2021/07/11 06:15:18;;;;;;;3.93;3.60;;;19.30;99.90;;;;;;4955964;29;20459;-67
2021/07/11 06:17:45;;;;;;;3.23;2.90;;;19.30;99.90;;;;;;4955957;29;20455;-67
2021/07/11 06:20:13;;;;;;;3.13;3.00;;;19.50;99.90;;;;;;4956669;29;20483;-68
2021/07/11 06:22:40;;;;;;;3.67;2.93;;;19.70;99.90;;;;;;4955851;29;20459;-68
2021/07/11 06:25:09;;;;;;;3.00;2.53;;;19.80;99.90;;;;;;4955540;29;20951;-68
2021/07/11 06:27:37;;;;;;;4.10;3.47;;;20.10;99.90;;;;;;4955831;29;20470;-67
2021/07/11 06:30:06;;;;;;;4.50;3.50;;;20.30;99.90;;;;;;4955925;29;20802;-67
2021/07/11 06:32:32;;;;;;;3.80;2.80;;;20.60;99.90;;;;;;4955718;29;20558;-68
2021/07/11 06:34:59;;;;;;;3.00;2.80;;;20.80;99.90;;;;;;4955786;29;20458;-67
2021/07/11 06:37:27;;;;;;;3.30;3.00;;;21.10;99.90;;;;;;4955754;29;20455;-67
2021/07/11 06:39:54;;;;;;;3.60;3.40;;;21.30;99.90;;;;;;4955604;29;20479;-66
2021/07/11 06:42:21;;;;;;;3.00;2.80;;;21.40;99.90;;;;;;4955395;29;20477;-67
2021/07/11 06:44:48;;;;;;;3.70;2.70;;;21.40;99.90;;;;;;4955750;29;20463;-66
2021/07/11 06:47:14;;;;;;;2.87;2.60;;;21.40;99.90;;;;;;4956671;29;20456;-68
2021/07/11 06:49:41;;;;;;;2.70;2.50;;;21.50;99.90;;;;;;4955772;29;20939;-67
2021/07/11 06:52:08;;;;;;;2.70;2.50;;;21.60;99.90;;;;;;4955544;29;20502;-68
2021/07/11 06:54:36;;;;;;;3.10;2.90;;;21.60;99.90;;;;;;4955581;29;20460;-68
2021/07/11 06:57:03;;;;;;;3.07;2.87;;;21.60;99.90;;;;;;4955941;29;20467;-67
2021/07/11 06:59:30;;;;;;;2.57;2.40;;;21.80;99.90;;;;;;4955431;29;20468;-66
2021/07/11 07:01:56;;;;;;;2.93;2.70;;;22.10;99.90;;;;;;4955520;29;20502;-67
2021/07/11 07:04:24;;;;;;;2.37;2.23;;;22.50;99.90;;;;;;4955709;29;20460;-67
2021/07/11 07:06:51;;;;;;;2.80;2.70;;;23.10;99.90;;;;;;4955688;29;20470;-67
2021/07/11 07:09:18;;;;;;;3.00;2.80;;;23.80;99.90;;;;;;4955611;29;20462;-66
2021/07/11 07:11:46;;;;;;;3.37;2.77;;;24.20;99.90;;;;;;4955694;29;20482;-66
2021/07/11 07:14:13;;;;;;;2.90;2.60;;;24.10;99.90;;;;;;4955668;29;20456;-67
2021/07/11 07:16:39;;;;;;;4.33;2.80;;;24.30;99.90;;;;;;4955770;29;20811;-66
2021/07/11 07:19:06;;;;;;;3.20;2.50;;;24.80;99.90;;;;;;4955967;28;20456;-66
2021/07/11 07:21:33;;;;;;;3.17;2.87;;;25.00;99.90;;;;;;4958975;29;20487;-66
2021/07/11 07:24:00;;;;;;;3.17;2.87;;;25.00;99.90;;;;;;4959312;29;20459;-66
2021/07/11 07:26:26;;;;;;;3.10;2.90;;;24.70;99.90;;;;;;4958736;29;20977;-67
2021/07/11 07:28:55;;;;;;;4.03;2.30;;;24.40;99.90;;;;;;4959003;29;20459;-67
2021/07/11 07:31:21;;;;;;;2.50;2.30;;;24.30;99.90;;;;;;4958776;29;20475;-68
2021/07/11 07:33:48;;;;;;;2.70;2.50;;;24.60;99.90;;;;;;4958818;29;20467;-67
2021/07/11 07:36:15;;;;;;;2.40;2.30;;;25.00;99.90;;;;;;4958785;29;20455;-67
2021/07/11 07:38:42;;;;;;;2.53;2.43;;;25.50;99.90;;;;;;4959379;29;20784;-68
2021/07/11 07:41:08;;;;;;;2.20;2.10;;;26.20;99.90;;;;;;4958682;29;20479;-69
2021/07/11 07:43:35;;;;;;;2.43;2.10;;;26.40;99.90;;;;;;4958413;29;20969;-68
2021/07/11 07:46:03;;;;;;;2.40;2.20;;;26.80;99.90;;;;;;4958339;29;20456;-67
2021/07/11 07:48:30;;;;;;;2.47;2.27;;;27.30;99.90;;;;;;4958580;29;20467;-67
2021/07/11 07:50:57;;;;;;;2.07;1.93;;;27.00;99.90;;;;;;4958605;29;20467;-67
2021/07/11 07:53:24;;;;;;;2.37;2.27;;;26.80;99.90;;;;;;4958818;29;20513;-70
2021/07/11 07:55:51;;;;;;;2.30;1.90;;;26.10;99.90;;;;;;4958698;29;20470;-68
2021/07/11 07:58:18;;;;;;;2.47;2.27;;;25.50;99.90;;;;;;4958538;29;20452;-67
2021/07/11 08:00:44;;;;;;;3.10;2.27;;;25.00;99.90;;;;;;4958213;29;20857;-67
2021/07/11 08:03:12;;;;;;;1.90;1.80;;;24.80;99.90;;;;;;4958554;29;20460;-67
2021/07/11 08:05:39;;;;;;;2.40;2.30;;;24.70;99.90;;;;;;4958448;29;20866;-67
2021/07/11 08:08:08;;;;;;;2.17;2.03;;;24.80;99.90;;;;;;4958493;29;20483;-68
2021/07/11 08:10:35;;;;;;;2.07;1.97;;;25.40;99.90;;;;;;4958856;28;20563;-67
2021/07/11 08:13:02;;;;;;;2.10;1.97;;;25.80;99.90;;;;;;4960046;29;20455;-67
2021/07/11 08:15:28;;;;;;;2.57;2.20;;;26.20;99.90;;;;;;4959394;29;20482;-67
2021/07/11 08:17:55;;;;;;;2.47;1.97;;;26.60;99.90;;;;;;4958853;29;20461;-67
2021/07/11 08:20:24;;;;;;;2.00;1.90;;;27.10;99.90;;;;;;4957945;29;20479;-68
2021/07/11 08:22:52;;;;;;;1.97;1.87;;;27.00;99.90;;;;;;4958350;29;20459;-69
2021/07/11 08:25:18;;;;;;;2.07;1.97;;;27.70;99.90;;;;;;4958235;29;20463;-67
2021/07/11 08:27:46;;;;;;;2.30;2.20;;;28.40;99.90;;;;;;4958849;29;20459;-67
2021/07/11 08:30:15;;;;;;;1.40;1.40;;;28.90;99.90;;;;;;4959043;29;20459;-68
2021/07/11 08:32:42;;;;;;;2.07;1.97;;;29.10;96.60;;;;;;4958111;28;20951;-67
2021/07/11 08:35:10;;;;;;;1.80;1.80;;;29.30;97.00;;;;;;4957863;29;20463;-67
2021/07/11 08:37:38;;;;;;;1.90;1.80;;;29.90;96.20;;;;;;4957699;29;20459;-68
2021/07/11 08:40:07;;;;;;;2.50;1.30;;;30.40;97.80;;;;;;4959623;29;20456;-68
2021/07/11 08:42:35;;;;;;;1.67;1.57;;;30.70;95.40;;;;;;4960505;29;20535;-67
2021/07/11 08:45:03;;;;;;;1.70;1.60;;;30.20;91.70;;;;;;4957729;29;20460;-68
2021/07/11 08:47:30;;;;;;;1.87;1.77;;;29.40;93.10;;;;;;4957336;29;20460;-68
2021/07/11 08:49:57;;;;;;;4.87;1.40;;;29.60;94.50;;;;;;4957556;28;20459;-68
2021/07/11 08:52:24;;;;;;;2.20;1.67;;;30.10;92.30;;;;;;4957282;29;20484;-68
2021/07/11 08:54:52;;;;;;;1.63;1.53;;;30.10;92.30;;;;;;4957305;29;20467;-68
2021/07/11 08:57:19;;;;;;;2.30;1.90;;;29.90;90.80;;;;;;4957427;29;20459;-68
2021/07/11 08:59:45;;;;;;;1.90;1.80;;;29.40;91.20;;;;;;4957016;29;20463;-68
2021/07/11 09:02:14;;;;;;;1.70;1.60;;;28.80;92.70;;;;;;4956825;29;20494;-68
2021/07/11 09:04:42;;;;;;;2.00;1.90;;;28.20;93.10;;;;;;4957204;29;20455;-67
2021/07/11 09:07:16;;;;;;;2.00;1.90;;;27.40;95.90;;;;;;4957353;29;20480;-67
2021/07/11 09:09:43;;;;;;;1.70;1.70;;;26.90;97.50;;;;;;4957354;29;20813;-67
2021/07/11 09:12:13;;;;;;;1.90;1.80;;;26.80;99.30;;;;;;4957316;29;20475;-67
2021/07/11 09:14:42;;;;;;;1.93;1.83;;;27.00;97.70;;;;;;4957450;29;20447;-67
2021/07/11 09:17:11;;;;;;;2.07;1.97;;;27.40;97.90;;;;;;4957417;29;20459;-68
2021/07/11 09:19:41;;;;;;;2.40;1.90;;;27.60;96.90;;;;;;4957170;29;20490;-68
2021/07/11 09:22:10;;;;;;;3.27;1.60;;;27.80;97.00;;;;;;4957316;29;20487;-67
2021/07/11 09:24:38;;;;;;;1.50;1.50;;;28.10;95.20;;;;;;4957018;29;20915;-67
2021/07/11 09:27:12;;;;;;;2.07;1.80;;;28.80;95.80;;;;;;4957184;29;20459;-69
2021/07/11 09:29:40;;;;;;;2.20;2.10;;;29.80;96.50;;;;;;4956794;29;20547;-67
2021/07/11 09:32:08;;;;;;;1.93;1.73;;;30.20;91.20;;;;;;4956959;29;20471;-67
2021/07/11 09:34:40;;;;;;;2.53;1.83;;;30.40;89.40;;;;;;4956757;29;20519;-67
2021/07/11 09:37:13;;;;;;;2.17;2.07;;;29.90;90.50;;;;;;4960453;29;20476;-67
2021/07/11 09:39:48;;;;;;;1.77;1.67;;;30.10;91.60;;;;;;4968035;29;20451;-67
2021/07/11 09:42:28;;;;;;;2.97;1.83;;;30.50;88.80;;;;;;4963945;28;20483;-68
2021/07/11 09:44:55;;;;;;;2.20;1.80;;;30.50;88.80;;;;;;4956645;29;20443;-68
2021/07/11 09:47:25;;;;;;;1.70;1.60;;;30.50;88.30;;;;;;4956889;29;20456;-68
2021/07/11 09:50:07;;;;;;;2.03;1.93;;;30.20;83.80;;;;;;4956777;29;20459;-68
2021/07/11 09:52:35;;;;;;;1.70;1.60;;;29.60;86.00;;;;;;4956430;29;20990;-68
2021/07/11 09:55:09;;;;;;;1.93;1.83;;;29.00;88.80;;;;;;4956614;29;20463;-67
2021/07/11 09:57:40;;;;;;;1.70;1.70;;;28.50;90.80;;;;;;4957237;29;20787;-67
2021/07/11 10:00:13;;;;;;;2.53;2.33;;;27.60;90.80;;;;;;4955955;29;21010;-68
2021/07/11 10:02:40;;;;;;;3.73;2.53;;;27.40;91.70;;;;;;4956416;29;20483;-67
2021/07/11 10:05:09;;;;;;;2.07;1.97;;;27.10;91.50;;;;;;4956407;29;20463;-67
2021/07/11 10:07:37;;;;;;;1.70;1.60;;;26.70;92.20;;;;;;4956421;28;20462;-67
2021/07/11 10:10:05;;;;;;;2.17;1.97;;;26.30;92.10;;;;;;4957109;29;20443;-67
2021/07/11 10:12:32;;;;;;;4.10;2.00;;;26.20;93.70;;;;;;4957119;28;20471;-67
2021/07/11 10:15:00;;;;;;;2.20;2.10;;;26.10;93.50;;;;;;4956513;29;20470;-67
2021/07/11 10:17:27;;;;;;;2.00;1.90;;;26.30;94.70;;;;;;4956501;29;20455;-67
2021/07/11 10:19:55;;;;;;;3.47;2.20;;;26.50;95.00;;;;;;4956285;29;20511;-67
2021/07/11 10:22:23;;;;;;;2.20;1.90;;;26.40;93.10;;;;;;4955949;29;20487;-67
2021/07/11 10:24:51;;;;;;;2.10;2.00;;;26.20;94.30;;;;;;4956313;29;20455;-67
2021/07/11 10:27:23;;;;;;;1.87;1.77;;;26.70;95.50;;;;;;4956089;29;20947;-68
2021/07/11 10:29:51;;;;;;;2.20;2.00;;;27.20;94.70;;;;;;4956003;29;20463;-68
2021/07/11 10:32:28;;;;;;;1.80;1.70;;;27.70;93.60;;;;;;4956241;29;20479;-68
2021/07/11 10:35:07;;;;;;;1.67;1.63;;;28.20;93.80;;;;;;4956384;29;20454;-68
2021/07/11 10:37:49;;;;;;;2.10;1.90;;;28.60;92.20;;;;;;4956524;29;20467;-68
2021/07/11 10:40:21;;;;;;;2.33;2.13;;;28.70;91.80;;;;;;4955842;29;20455;-68
2021/07/11 10:42:50;;;;;;;2.00;1.90;;;28.70;90.70;;;;;;4955642;29;20986;-69
2021/07/11 10:45:18;;;;;;;1.60;1.60;;;28.50;92.30;;;;;;4955836;29;20510;-68
2021/07/11 10:47:47;;;;;;;1.90;1.80;;;28.50;92.10;;;;;;4955823;29;20459;-68
2021/07/11 10:50:27;;;;;;;2.00;1.90;;;28.50;93.10;;;;;;4956391;29;20456;-68
2021/07/11 10:52:54;;;;;;;1.90;1.80;;;28.20;92.40;;;;;;4957429;29;20439;-68
2021/07/11 10:55:21;;;;;;;2.27;2.17;;;27.90;93.20;;;;;;4960598;28;20451;-68
2021/07/11 10:57:48;;;;;;;2.60;2.50;;;28.00;93.10;;;;;;4961054;29;20830;-68
2021/07/11 11:00:18;;;;;;;2.53;2.33;;;27.80;95.30;;;;;;4960274;29;20491;-68
2021/07/11 11:02:48;;;;;;;2.13;2.03;;;27.80;95.10;;;;;;4959860;29;20484;-67
2021/07/11 11:05:20;;;;;;;3.00;2.30;;;27.90;93.50;;;;;;4959603;29;20450;-67
2021/07/11 11:07:49;;;;;;;2.20;2.10;;;27.90;93.50;;;;;;4959806;29;20455;-67
2021/07/11 11:10:30;;;;;;;2.73;2.10;;;27.70;92.40;;;;;;4959442;29;20910;-67
2021/07/11 11:13:06;;;;;;;2.57;2.00;;;28.00;93.80;;;;;;4959584;29;20447;-68
2021/07/11 11:15:41;;;;;;;1.80;1.70;;;28.10;93.00;;;;;;4960464;29;20485;-67
2021/07/11 11:18:21;;;;;;;1.77;1.67;;;27.80;91.40;;;;;;4959867;29;20925;-67
2021/07/11 11:20:59;;;;;;;1.90;1.90;;;27.90;93.60;;;;;;4959052;29;20475;-68
2021/07/11 11:23:27;;;;;;;1.93;1.77;;;28.00;92.50;;;;;;4959106;29;20448;-68
2021/07/11 11:25:55;;;;;;;2.33;1.83;;;28.10;92.40;;;;;;4959044;29;20858;-67
2021/07/11 11:28:29;;;;;;;2.10;2.00;;;28.10;92.20;;;;;;4958974;29;20463;-68
2021/07/11 11:31:20;;;;;;;2.10;2.00;;;28.00;91.70;;;;;;4958854;29;20482;-67
2021/07/11 11:33:53;;;;;;;1.80;1.70;;;28.20;93.10;;;;;;4958655;29;20447;-67
2021/07/11 11:36:22;;;;;;;2.53;1.80;;;28.60;94.10;;;;;;4958910;29;20440;-68
2021/07/11 11:38:49;;;;;;;1.90;1.80;;;28.50;92.90;;;;;;4958724;29;20462;-68
2021/07/11 11:41:17;;;;;;;4.10;2.30;;;28.50;91.50;;;;;;4958584;29;20479;-68
2021/07/11 11:43:47;;;;;;;2.40;1.83;;;28.30;89.40;;;;;;4958838;29;20451;-67
2021/07/11 11:46:24;;;;;;;4.20;2.00;;;27.70;88.90;;;;;;4959005;29;20554;-67
2021/07/11 11:48:56;;;;;;;2.20;2.00;;;26.90;91.50;;;;;;4958896;29;20480;-67
2021/07/11 11:51:23;;;;;;;4.00;1.80;;;26.90;91.40;;;;;;4958670;29;20482;-67
2021/07/11 11:53:50;;;;;;;1.93;1.83;;;26.70;92.20;;;;;;4958752;29;21014;-67
2021/07/11 11:56:17;;;;;;;2.53;2.33;;;26.70;93.30;;;;;;4958492;29;20466;-67
2021/07/11 11:58:44;;;;;;;2.03;1.93;;;26.30;93.30;;;;;;4958802;29;20955;-67
2021/07/11 12:01:13;;;;;;;2.40;1.80;;;26.30;93.60;;;;;;4958090;29;20487;-67
2021/07/11 12:03:41;;;;;;;2.07;1.97;;;26.30;94.40;;;;;;4958359;29;20463;-68
2021/07/11 12:06:11;;;;;;;2.30;2.20;;;26.30;94.50;;;;;;4957345;28;20456;-67
2021/07/11 12:08:40;;;;;;;4.23;2.00;;;26.30;96.00;;;;;;4958879;29;20943;-67
2021/07/11 12:11:08;;;;;;;1.53;1.50;;;26.50;95.80;;;;;;4958070;29;20475;-68
2021/07/11 12:13:35;;;;;;;2.23;1.90;;;26.50;94.70;;;;;;4958603;29;20944;-67
2021/07/11 12:16:07;;;;;;;2.33;1.80;;;26.60;95.60;;;;;;4958394;29;20455;-67
2021/07/11 12:18:45;;;;;;;2.87;2.20;;;26.30;94.10;;;;;;4958740;29;20472;-67
2021/07/11 12:21:19;;;;;;;1.80;1.70;;;26.50;95.80;;;;;;4958056;29;20478;-67
2021/07/11 12:23:56;;;;;;;1.93;1.83;;;26.90;96.40;;;;;;4958566;29;20920;-67
2021/07/11 12:26:23;;;;;;;1.80;1.70;;;27.20;93.00;;;;;;4958290;29;20448;-67
2021/07/11 12:28:52;;;;;;;2.20;1.53;;;27.70;93.30;;;;;;4958198;29;20459;-67
2021/07/11 12:31:20;;;;;;;1.50;1.50;;;28.20;90.80;;;;;;4958251;29;20475;-68
2021/07/11 12:33:49;;;;;;;2.13;1.93;;;28.10;91.70;;;;;;4958348;29;20462;-67
2021/07/11 12:36:17;;;;;;;1.67;1.67;;;27.70;89.40;;;;;;4960118;29;20487;-67
2021/07/11 12:38:44;;;;;;;1.90;1.80;;;27.90;86.80;;;;;;4964300;29;20451;-67
2021/07/11 12:41:12;;;;;;;2.37;2.17;;;28.00;90.80;;;;;;4965712;29;20508;-66
2021/07/11 12:43:48;;;;;;;1.87;1.73;;;28.20;88.10;;;;;;4963323;29;20483;-67
2021/07/11 12:46:17;;;;;;;2.03;1.93;;;28.10;91.70;;;;;;4960105;29;20451;-67
2021/07/11 12:48:45;;;;;;;2.20;1.90;;;28.30;92.40;;;;;;4961560;29;20983;-67
2021/07/11 12:51:14;;;;;;;1.73;1.63;;;28.20;90.00;;;;;;4958132;29;20475;-67
2021/07/11 12:53:42;;;;;;;2.70;1.70;;;28.20;90.90;;;;;;4957598;29;20451;-67
2021/07/11 12:56:09;;;;;;;1.77;1.67;;;28.40;92.30;;;;;;4957742;29;20905;-67
2021/07/11 12:58:38;;;;;;;1.80;1.70;;;28.70;93.70;;;;;;4957936;29;20451;-67
2021/07/11 13:01:05;;;;;;;2.50;1.90;;;28.80;85.00;;;;;;4957476;29;20491;-67
2021/07/11 13:03:32;;;;;;;1.70;1.60;;;28.60;84.70;;;;;;4957399;29;20483;-67
2021/07/11 13:06:00;;;;;;;1.80;1.70;;;28.20;89.40;;;;;;4957534;29;20514;-67
2021/07/11 13:08:28;;;;;;;1.50;1.50;;;28.10;90.10;;;;;;4957620;29;20459;-67
2021/07/11 13:10:56;;;;;;;1.73;1.73;;;27.70;88.20;;;;;;4957887;29;20556;-67
2021/07/11 13:13:23;;;;;;;1.60;1.47;;;27.40;87.50;;;;;;4957939;29;20460;-66
2021/07/11 13:15:50;;;;;;;1.80;1.70;;;27.30;90.50;;;;;;4958277;29;20819;-67
2021/07/11 13:18:16;;;;;;;1.70;1.60;;;27.10;90.80;;;;;;4957307;28;20974;-67
2021/07/11 13:20:44;;;;;;;2.03;1.90;;;26.80;89.80;;;;;;4957719;29;20471;-67
2021/07/11 13:23:11;;;;;;;1.93;1.83;;;26.40;90.40;;;;;;4957655;29;20482;-67
2021/07/11 13:25:38;;;;;;;2.23;2.13;;;26.30;91.80;;;;;;4957163;29;20456;-67
2021/07/11 13:28:07;;;;;;;2.20;2.10;;;26.20;93.60;;;;;;4957484;29;20461;-67
2021/07/11 13:30:34;;;;;;;3.50;2.37;;;26.00;94.70;;;;;;4957551;29;20480;-67
2021/07/11 13:33:01;;;;;;;2.53;2.33;;;25.90;94.30;;;;;;4957612;29;20459;-68
2021/07/11 13:35:28;;;;;;;2.40;2.30;;;25.90;95.60;;;;;;4957622;29;20452;-67
2021/07/11 13:37:55;;;;;;;1.93;1.83;;;26.10;95.20;;;;;;4957038;29;20462;-66
2021/07/11 13:40:23;;;;;;;2.00;1.90;;;26.30;94.90;;;;;;4957400;29;20459;-68
2021/07/11 13:42:51;;;;;;;2.30;2.07;;;26.50;94.80;;;;;;4956654;29;20995;-67
2021/07/11 13:45:20;;;;;;;2.27;2.13;;;26.80;92.90;;;;;;4957107;29;20467;-67
2021/07/11 13:47:47;;;;;;;2.00;1.90;;;27.00;92.00;;;;;;4959752;29;20467;-67
2021/07/11 13:50:17;;;;;;;1.63;1.40;;;27.00;93.60;;;;;;4957630;29;20459;-68
2021/07/11 13:52:45;;;;;;;2.03;1.93;;;27.00;90.50;;;;;;4957590;29;20444;-67
2021/07/11 13:55:13;;;;;;;2.00;1.87;;;27.10;92.60;;;;;;4958366;29;20447;-66
2021/07/11 13:57:40;;;;;;;1.77;1.70;;;27.30;90.50;;;;;;4958242;29;20464;-66
2021/07/11 14:00:10;;;;;;;1.93;1.83;;;27.10;89.40;;;;;;4963672;29;20525;-66
2021/07/11 14:02:38;;;;;;;2.47;2.20;;;27.00;90.40;;;;;;4956941;29;20490;-66
2021/07/11 14:05:06;;;;;;;2.10;2.00;;;27.00;91.80;;;;;;4958639;29;20463;-66
2021/07/11 14:07:32;;;;;;;2.67;1.97;;;27.10;91.60;;;;;;4957387;28;20487;-66
2021/07/11 14:10:00;;;;;;;2.40;1.97;;;26.90;92.10;;;;;;4956311;28;20446;-67
2021/07/11 14:12:27;;;;;;;1.90;1.63;;;27.10;92.00;;;;;;4956295;29;20478;-66
2021/07/11 14:14:55;;;;;;;2.20;2.00;;;27.40;92.80;;;;;;4956171;29;20459;-67
2021/07/11 14:17:21;;;;;;;1.40;1.30;;;27.30;90.20;;;;;;4955915;29;20885;-67
2021/07/11 14:19:50;;;;;;;1.70;1.60;;;27.40;89.10;;;;;;4956147;29;20462;-66
2021/07/11 14:22:16;;;;;;;1.67;1.67;;;27.30;87.90;;;;;;4956997;29;20494;-66
2021/07/11 14:24:43;;;;;;;1.70;1.70;;;27.30;90.10;;;;;;4956180;29;20454;-66
2021/07/11 14:27:10;;;;;;;1.80;1.70;;;27.60;89.40;;;;;;4956022;29;20459;-67
2021/07/11 14:29:37;;;;;;;1.73;1.60;;;27.90;89.30;;;;;;4955733;28;20451;-67
2021/07/11 14:32:04;;;;;;;2.10;1.97;;;27.70;88.70;;;;;;4956114;29;20487;-66
2021/07/11 14:34:31;;;;;;;2.00;1.90;;;27.60;90.10;;;;;;4965749;29;20452;-67
2021/07/11 14:36:59;;;;;;;2.40;2.07;;;27.60;91.30;;;;;;4966595;29;20451;-66
2021/07/11 14:39:26;;;;;;;2.50;2.00;;;27.40;92.30;;;;;;4957607;29;20518;-66
2021/07/11 14:41:53;;;;;;;2.20;2.10;;;27.10;91.60;;;;;;4955729;29;20946;-66
2021/07/11 14:44:19;;;;;;;1.93;1.83;;;26.90;92.90;;;;;;4956145;29;20463;-66
2021/07/11 14:46:46;;;;;;;1.90;1.90;;;26.80;92.80;;;;;;4956022;29;20459;-67
2021/07/11 14:49:13;;;;;;;2.60;1.90;;;27.10;94.20;;;;;;4955691;29;20460;-66
2021/07/11 14:51:40;;;;;;;1.50;1.40;;;27.40;92.60;;;;;;4955341;29;20479;-66
2021/07/11 14:54:08;;;;;;;1.83;1.83;;;27.50;92.10;;;;;;4955921;29;20506;-66
2021/07/11 14:56:34;;;;;;;2.17;2.00;;;27.50;91.50;;;;;;4957049;28;20455;-66
2021/07/11 14:59:01;;;;;;;2.00;1.90;;;27.40;91.70;;;;;;4956233;29;20459;-66
2021/07/11 15:01:28;;;;;;;2.10;1.90;;;27.30;91.70;;;;;;4955495;29;20494;-66
2021/07/11 15:03:54;;;;;;;2.87;2.67;;;26.70;93.10;;;;;;4956009;29;20479;-66
2021/07/11 15:06:21;;;;;;;2.50;2.30;;;26.60;93.70;;;;;;4955968;29;20838;-66
2021/07/11 15:08:48;;;;;;;2.97;2.37;;;26.70;94.40;;;;;;4955944;29;20455;-66
2021/07/11 15:11:16;;;;;;;2.20;2.00;;;27.00;94.50;;;;;;4956261;29;20476;-66
2021/07/11 15:13:43;;;;;;;1.53;1.53;;;27.10;93.50;;;;;;4955681;29;20853;-66
2021/07/11 15:16:09;;;;;;;2.27;2.07;;;27.30;92.80;;;;;;4959756;29;20459;-66
2021/07/11 15:18:36;;;;;;;1.60;1.60;;;27.60;91.80;;;;;;4956075;29;20943;-65
2021/07/11 15:21:03;;;;;;;1.87;1.77;;;27.70;93.70;;;;;;4955635;29;20562;-66
2021/07/11 15:23:30;;;;;;;1.77;1.70;;;27.90;91.50;;;;;;4955481;29;20486;-66
2021/07/11 15:25:57;;;;;;;1.70;1.60;;;27.60;90.40;;;;;;4955578;29;20460;-67
2021/07/11 15:28:26;;;;;;;1.70;1.53;;;27.70;90.50;;;;;;4957855;29;20487;-66
2021/07/11 15:30:52;;;;;;;2.03;1.93;;;27.80;87.60;;;;;;4960259;29;20472;-65
2021/07/11 15:33:19;;;;;;;1.90;1.80;;;27.60;86.50;;;;;;4959085;29;20459;-66
2021/07/11 15:35:47;;;;;;;1.80;1.70;;;27.70;87.40;;;;;;4956215;29;20876;-66
2021/07/11 15:38:14;;;;;;;2.00;1.90;;;27.60;87.40;;;;;;4956559;29;20879;-65
2021/07/11 15:40:42;;;;;;;1.90;1.80;;;27.30;87.60;;;;;;4958512;28;20852;-66
2021/07/11 15:43:10;;;;;;;2.10;1.77;;;27.10;88.80;;;;;;4960183;29;20479;-65
2021/07/11 15:45:38;;;;;;;1.97;1.87;;;26.70;88.50;;;;;;4960112;29;20558;-66
2021/07/11 15:48:05;;;;;;;1.53;1.53;;;26.90;87.00;;;;;;4960192;29;20459;-66
2021/07/11 15:50:33;;;;;;;2.47;2.27;;;26.70;86.90;;;;;;4959918;28;20455;-66
2021/07/11 15:53:00;;;;;;;2.23;2.13;;;26.80;87.60;;;;;;4959720;29;20451;-66
2021/07/11 15:55:27;;;;;;;2.80;2.60;;;26.30;88.60;;;;;;4959751;29;20459;-66
2021/07/11 15:57:53;;;;;;;3.00;2.30;;;26.30;89.50;;;;;;4959697;28;20939;-66
2021/07/11 16:00:20;;;;;;;2.17;2.07;;;26.30;90.00;;;;;;4959313;29;20491;-66
2021/07/11 16:02:48;;;;;;;3.47;2.30;;;26.30;90.00;;;;;;4959801;29;20459;-65
2021/07/11 16:05:15;;;;;;;1.83;1.70;;;26.00;89.10;;;;;;4959497;29;20554;-65
2021/07/11 16:07:42;;;;;;;1.50;1.50;;;25.80;90.00;;;;;;4958961;29;20462;-66
2021/07/11 16:10:10;;;;;;;2.47;2.27;;;25.80;90.60;;;;;;4958725;29;20505;-67
2021/07/11 16:12:36;;;;;;;1.73;1.73;;;25.70;91.30;;;;;;4958419;29;20479;-67
2021/07/11 16:15:05;;;;;;;2.10;1.90;;;26.00;91.20;;;;;;4958651;29;20467;-67
2021/07/11 16:17:33;;;;;;;1.80;1.70;;;26.10;91.10;;;;;;4958520;29;20462;-67
2021/07/11 16:20:02;;;;;;;2.10;2.00;;;26.20;90.00;;;;;;4958299;29;20458;-67
2021/07/11 16:22:29;;;;;;;1.87;1.77;;;26.10;90.70;;;;;;4958049;29;20483;-67
2021/07/11 16:24:55;;;;;;;1.77;1.67;;;26.10;90.80;;;;;;4958214;29;20463;-67
2021/07/11 16:27:22;;;;;;;2.03;1.80;;;26.30;90.90;;;;;;4958143;29;20466;-67
2021/07/11 16:29:49;;;;;;;2.40;1.70;;;26.20;91.40;;;;;;4958091;29;20456;-68
2021/07/11 16:32:15;;;;;;;2.70;2.00;;;26.00;91.00;;;;;;4958288;29;20475;-67
2021/07/11 16:34:42;;;;;;;2.70;2.60;;;26.20;92.10;;;;;;4958397;29;20482;-67
2021/07/11 16:37:10;;;;;;;1.63;1.63;;;26.40;91.70;;;;;;4958809;29;20459;-67
2021/07/11 16:39:37;;;;;;;2.40;2.30;;;26.40;91.50;;;;;;4957897;29;20455;-67
2021/07/11 16:42:04;;;;;;;2.00;1.90;;;26.50;92.00;;;;;;4957614;29;20546;-67
2021/07/11 16:44:31;;;;;;;2.10;2.00;;;26.60;91.60;;;;;;4957675;28;20486;-67
2021/07/11 16:46:57;;;;;;;2.00;1.90;;;26.70;90.60;;;;;;4957753;29;20455;-67
2021/07/11 16:49:25;;;;;;;1.63;1.40;;;26.70;90.30;;;;;;4957525;29;20518;-67
2021/07/11 16:51:53;;;;;;;1.83;1.73;;;26.70;89.80;;;;;;4957429;28;20511;-67
2021/07/11 16:54:21;;;;;;;1.90;1.80;;;26.60;90.50;;;;;;4957490;29;20857;-67